sensor_id;sensor_type;location;lat;lon;timestamp;pressure;altitude;pressure_sealevel;temperature;humidity
23363;BME280;11853;48.080;11.960;2023-04-06T00:02:08;95001.22;;;3.23;63.16
23363;BME280;11853;48.080;11.960;2023-04-06T00:04:33;94998.09;;;3.31;63.25
23363;BME280;11853;48.080;11.960;2023-04-06T00:06:59;94993.81;;;3.30;63.54
23363;BME280;11853;48.080;11.960;2023-04-06T00:09:24;94996.72;;;3.25;63.58
23363;BME280;11853;48.080;11.960;2023-04-06T00:11:50;94997.78;;;3.23;64.26
23363;BME280;11853;48.080;11.960;2023-04-06T00:14:16;94996.19;;;3.20;63.86
23363;BME280;11853;48.080;11.960;2023-04-06T00:16:42;94993.56;;;3.20;64.31
23363;BME280;11853;48.080;11.960;2023-04-06T00:19:08;94992.88;;;3.18;64.53
23363;BME280;11853;48.080;11.960;2023-04-06T00:21:34;95000.19;;;3.13;63.63
23363;BME280;11853;48.080;11.960;2023-04-06T00:23:59;94993.38;;;3.10;63.30
23363;BME280;11853;48.080;11.960;2023-04-06T00:26:25;94997.66;;;3.11;63.53
23363;BME280;11853;48.080;11.960;2023-04-06T00:28:51;95001.25;;;3.10;64.48
23363;BME280;11853;48.080;11.960;2023-04-06T00:31:17;94996.81;;;3.11;64.33
23363;BME280;11853;48.080;11.960;2023-04-06T00:33:43;94991.59;;;3.11;65.50
23363;BME280;11853;48.080;11.960;2023-04-06T00:36:09;94987.31;;;3.10;64.12
23363;BME280;11853;48.080;11.960;2023-04-06T00:38:34;94997.03;;;3.08;64.06
23363;BME280;11853;48.080;11.960;2023-04-06T00:41:00;94988.22;;;3.09;63.77
23363;BME280;11853;48.080;11.960;2023-04-06T00:43:26;94984.47;;;3.13;64.90
23363;BME280;11853;48.080;11.960;2023-04-06T00:45:52;94987.84;;;3.15;64.38
23363;BME280;11853;48.080;11.960;2023-04-06T00:48:18;94991.38;;;3.14;62.96
23363;BME280;11853;48.080;11.960;2023-04-06T00:50:43;94982.06;;;3.10;61.99
23363;BME280;11853;48.080;11.960;2023-04-06T00:53:09;94984.69;;;3.10;62.35
23363;BME280;11853;48.080;11.960;2023-04-06T00:55:35;94986.97;;;3.02;63.26
23363;BME280;11853;48.080;11.960;2023-04-06T00:58:01;94984.44;;;3.00;63.84
23363;BME280;11853;48.080;11.960;2023-04-06T01:00:27;94992.44;;;2.99;63.53
23363;BME280;11853;48.080;11.960;2023-04-06T01:02:53;94988.13;;;2.98;62.54
23363;BME280;11853;48.080;11.960;2023-04-06T01:05:19;94991.16;;;2.91;62.78
23363;BME280;11853;48.080;11.960;2023-04-06T01:07:45;94985.91;;;2.91;63.33
23363;BME280;11853;48.080;11.960;2023-04-06T01:10:27;94990.22;;;2.92;63.24
23363;BME280;11853;48.080;11.960;2023-04-06T01:12:53;94986.94;;;2.89;63.43
23363;BME280;11853;48.080;11.960;2023-04-06T01:15:19;94987.06;;;2.87;63.76
23363;BME280;11853;48.080;11.960;2023-04-06T01:17:46;94987.06;;;2.87;63.36
23363;BME280;11853;48.080;11.960;2023-04-06T01:20:12;94989.69;;;2.87;64.41
23363;BME280;11853;48.080;11.960;2023-04-06T01:22:40;94994.38;;;2.82;63.48
23363;BME280;11853;48.080;11.960;2023-04-06T01:25:07;94998.16;;;2.78;64.06
23363;BME280;11853;48.080;11.960;2023-04-06T01:27:33;94988.59;;;2.77;64.52
23363;BME280;11853;48.080;11.960;2023-04-06T01:29:58;94992.19;;;2.76;64.41
23363;BME280;11853;48.080;11.960;2023-04-06T01:32:24;94987.16;;;2.73;64.53
23363;BME280;11853;48.080;11.960;2023-04-06T01:34:50;94987.16;;;2.73;64.74
23363;BME280;11853;48.080;11.960;2023-04-06T01:37:16;94979.28;;;2.73;64.39
23363;BME280;11853;48.080;11.960;2023-04-06T01:39:43;94983.06;;;2.69;65.24
23363;BME280;11853;48.080;11.960;2023-04-06T01:42:08;94982.88;;;2.72;65.92
23363;BME280;11853;48.080;11.960;2023-04-06T01:44:34;94973.31;;;2.71;65.74
23363;BME280;11853;48.080;11.960;2023-04-06T01:46:59;94975.84;;;2.73;65.96
23363;BME280;11853;48.080;11.960;2023-04-06T01:49:25;94973.31;;;2.71;66.58
23363;BME280;11853;48.080;11.960;2023-04-06T01:51:51;94974.34;;;2.68;66.87
23363;BME280;11853;48.080;11.960;2023-04-06T01:54:17;94969.84;;;2.70;66.67
23363;BME280;11853;48.080;11.960;2023-04-06T01:56:43;94965.13;;;2.63;66.30
23363;BME280;11853;48.080;11.960;2023-04-06T01:59:08;94974.66;;;2.64;66.25
23363;BME280;11853;48.080;11.960;2023-04-06T02:01:34;94973.59;;;2.54;67.28
23363;BME280;11853;48.080;11.960;2023-04-06T02:03:59;94971.50;;;2.59;66.60
23363;BME280;11853;48.080;11.960;2023-04-06T02:06:25;94968.06;;;2.58;65.75
23363;BME280;11853;48.080;11.960;2023-04-06T02:08:51;94976.84;;;2.57;65.54
23363;BME280;11853;48.080;11.960;2023-04-06T02:11:17;94970.97;;;2.54;65.71
23363;BME280;11853;48.080;11.960;2023-04-06T02:13:42;94957.13;;;2.52;66.38
23363;BME280;11853;48.080;11.960;2023-04-06T02:16:08;94974.53;;;2.53;66.54
23363;BME280;11853;48.080;11.960;2023-04-06T02:18:34;94974.53;;;2.53;66.63
23363;BME280;11853;48.080;11.960;2023-04-06T02:20:59;94968.22;;;2.42;68.39
23363;BME280;11853;48.080;11.960;2023-04-06T02:23:25;94974.28;;;2.43;67.44
23363;BME280;11853;48.080;11.960;2023-04-06T02:25:51;94977.03;;;2.41;68.04
23363;BME280;11853;48.080;11.960;2023-04-06T02:28:17;94972.91;;;2.37;67.65
23363;BME280;11853;48.080;11.960;2023-04-06T02:30:42;94968.63;;;2.36;67.49
23363;BME280;11853;48.080;11.960;2023-04-06T02:33:08;94966.94;;;2.35;67.33
23363;BME280;11853;48.080;11.960;2023-04-06T02:35:34;94965.25;;;2.34;67.75
23363;BME280;11853;48.080;11.960;2023-04-06T02:37:59;94965.38;;;2.33;68.15
23363;BME280;11853;48.080;11.960;2023-04-06T02:40:25;94965.56;;;2.30;68.50
23363;BME280;11853;48.080;11.960;2023-04-06T02:42:50;94959.19;;;2.34;68.00
23363;BME280;11853;48.080;11.960;2023-04-06T02:45:16;94965.22;;;2.21;68.79
23363;BME280;11853;48.080;11.960;2023-04-06T02:47:42;94963.44;;;2.22;68.83
23363;BME280;11853;48.080;11.960;2023-04-06T02:50:07;94961.22;;;2.16;69.42
23363;BME280;11853;48.080;11.960;2023-04-06T02:52:33;94969.84;;;2.18;69.98
23363;BME280;11853;48.080;11.960;2023-04-06T02:54:59;94966.66;;;2.13;70.49
23363;BME280;11853;48.080;11.960;2023-04-06T02:57:24;94960.47;;;2.14;70.23
23363;BME280;11853;48.080;11.960;2023-04-06T02:59:50;94963.09;;;2.14;70.56
23363;BME280;11853;48.080;11.960;2023-04-06T03:02:15;94959.56;;;2.15;71.14
23363;BME280;11853;48.080;11.960;2023-04-06T03:04:42;94968.53;;;2.11;71.01
23363;BME280;11853;48.080;11.960;2023-04-06T03:07:07;94958.06;;;2.11;71.31
23363;BME280;11853;48.080;11.960;2023-04-06T03:09:33;94963.31;;;2.11;71.32
23363;BME280;11853;48.080;11.960;2023-04-06T03:11:59;94965.16;;;2.09;72.42
23363;BME280;11853;48.080;11.960;2023-04-06T03:14:27;94960.13;;;2.06;72.36
23363;BME280;11853;48.080;11.960;2023-04-06T03:16:52;94968.09;;;2.04;72.62
23363;BME280;11853;48.080;11.960;2023-04-06T03:19:18;94965.56;;;2.02;72.66
23363;BME280;11853;48.080;11.960;2023-04-06T03:21:43;94963.06;;;2.01;72.32
23363;BME280;11853;48.080;11.960;2023-04-06T03:24:09;94965.56;;;2.02;73.03
23363;BME280;11853;48.080;11.960;2023-04-06T03:26:34;94963.91;;;2.01;72.71
23363;BME280;11853;48.080;11.960;2023-04-06T03:29:00;94966.72;;;1.98;73.26
23363;BME280;11853;48.080;11.960;2023-04-06T03:31:26;94966.59;;;2.00;72.57
23363;BME280;11853;48.080;11.960;2023-04-06T03:33:52;94968.38;;;1.99;71.90
23363;BME280;11853;48.080;11.960;2023-04-06T03:36:17;94970.16;;;1.99;72.77
23363;BME280;11853;48.080;11.960;2023-04-06T03:38:43;94978.66;;;2.02;72.39
23363;BME280;11853;48.080;11.960;2023-04-06T03:41:09;94987.03;;;2.08;72.01
23363;BME280;11853;48.080;11.960;2023-04-06T03:43:35;94976.78;;;2.05;72.33
23363;BME280;11853;48.080;11.960;2023-04-06T03:46:00;94975.47;;;1.97;72.08
23363;BME280;11853;48.080;11.960;2023-04-06T03:48:26;94985.66;;;2.02;72.10
23363;BME280;11853;48.080;11.960;2023-04-06T03:50:52;94987.44;;;2.01;72.06
23363;BME280;11853;48.080;11.960;2023-04-06T03:53:33;94981.47;;;1.99;72.29
23363;BME280;11853;48.080;11.960;2023-04-06T03:55:58;94985.25;;;2.08;71.40
23363;BME280;11853;48.080;11.960;2023-04-06T03:58:24;94984.63;;;2.05;71.93
23363;BME280;11853;48.080;11.960;2023-04-06T04:00:49;94994.34;;;2.02;71.52
23363;BME280;11853;48.080;11.960;2023-04-06T04:03:15;94993.63;;;2.00;71.00
23363;BME280;11853;48.080;11.960;2023-04-06T04:05:40;94999.00;;;1.97;71.29
23363;BME280;11853;48.080;11.960;2023-04-06T04:08:06;94992.31;;;1.93;70.99
23363;BME280;11853;48.080;11.960;2023-04-06T04:10:31;94994.94;;;1.93;70.76
23363;BME280;11853;48.080;11.960;2023-04-06T04:12:57;94995.03;;;1.92;71.00
23363;BME280;11853;48.080;11.960;2023-04-06T04:15:22;94998.00;;;1.86;70.64
23363;BME280;11853;48.080;11.960;2023-04-06T04:17:48;95000.75;;;1.84;71.43
23363;BME280;11853;48.080;11.960;2023-04-06T04:20:15;95000.63;;;1.86;71.17
23363;BME280;11853;48.080;11.960;2023-04-06T04:22:41;95003.56;;;1.81;70.99
23363;BME280;11853;48.080;11.960;2023-04-06T04:25:07;94997.75;;;1.76;70.86
23363;BME280;11853;48.080;11.960;2023-04-06T04:27:33;95007.28;;;1.77;70.95
23363;BME280;11853;48.080;11.960;2023-04-06T04:29:58;95012.69;;;1.74;71.38
23363;BME280;11853;48.080;11.960;2023-04-06T04:32:24;95001.13;;;1.78;71.53
23363;BME280;11853;48.080;11.960;2023-04-06T04:34:53;94988.06;;;1.78;71.88
23363;BME280;11853;48.080;11.960;2023-04-06T04:37:18;95005.63;;;1.76;72.27
23363;BME280;11853;48.080;11.960;2023-04-06T04:39:45;95007.28;;;1.77;71.98
23363;BME280;11853;48.080;11.960;2023-04-06T04:42:10;95006.56;;;1.75;72.33
23363;BME280;11853;48.080;11.960;2023-04-06T04:44:36;95009.38;;;1.72;72.46
23363;BME280;11853;48.080;11.960;2023-04-06T04:47:01;95007.22;;;1.64;72.96
23363;BME280;11853;48.080;11.960;2023-04-06T04:49:27;95014.22;;;1.64;72.78
23363;BME280;11853;48.080;11.960;2023-04-06T04:51:53;95002.75;;;1.66;72.61
23363;BME280;11853;48.080;11.960;2023-04-06T04:54:18;95006.84;;;1.70;72.44
23363;BME280;11853;48.080;11.960;2023-04-06T04:56:44;95013.38;;;1.77;71.86
23363;BME280;11853;48.080;11.960;2023-04-06T04:59:10;95012.44;;;2.06;71.57
23363;BME280;11853;48.080;11.960;2023-04-06T05:01:36;95010.63;;;2.35;70.35
23363;BME280;11853;48.080;11.960;2023-04-06T05:04:02;95005.16;;;2.65;68.22
23363;BME280;11853;48.080;11.960;2023-04-06T05:06:27;95013.06;;;2.90;67.07
23363;BME280;11853;48.080;11.960;2023-04-06T05:08:52;95011.94;;;3.20;66.12
23363;BME280;11853;48.080;11.960;2023-04-06T05:11:18;95005.22;;;3.42;66.16
23363;BME280;11853;48.080;11.960;2023-04-06T05:13:44;95009.41;;;3.70;64.75
23363;BME280;11853;48.080;11.960;2023-04-06T05:16:09;95013.66;;;3.96;63.51
23363;BME280;11853;48.080;11.960;2023-04-06T05:18:35;95010.06;;;4.34;62.29
23363;BME280;11853;48.080;11.960;2023-04-06T05:21:00;95015.63;;;4.78;60.07
23363;BME280;11853;48.080;11.960;2023-04-06T05:23:26;95013.59;;;5.05;58.65
23363;BME280;11853;48.080;11.960;2023-04-06T05:25:52;95011.03;;;5.28;57.59
23363;BME280;11853;48.080;11.960;2023-04-06T05:28:17;95012.50;;;5.54;56.31
23363;BME280;11853;48.080;11.960;2023-04-06T05:30:44;95015.38;;;5.85;55.80
23363;BME280;11853;48.080;11.960;2023-04-06T05:33:11;95020.19;;;6.14;55.00
23363;BME280;11853;48.080;11.960;2023-04-06T05:35:36;95019.44;;;6.34;54.70
23363;BME280;11853;48.080;11.960;2023-04-06T05:38:02;95012.88;;;6.61;53.40
23363;BME280;11853;48.080;11.960;2023-04-06T05:40:28;95018.38;;;6.69;52.81
23363;BME280;11853;48.080;11.960;2023-04-06T05:42:53;95015.66;;;6.91;52.41
23363;BME280;11853;48.080;11.960;2023-04-06T05:45:19;95017.44;;;7.23;51.49
23363;BME280;11853;48.080;11.960;2023-04-06T05:47:45;95014.34;;;7.39;50.87
23363;BME280;11853;48.080;11.960;2023-04-06T05:50:12;95010.22;;;7.67;50.40
23363;BME280;11853;48.080;11.960;2023-04-06T05:52:38;95017.16;;;7.99;48.52
23363;BME280;11853;48.080;11.960;2023-04-06T05:55:04;95013.28;;;8.03;48.82
23363;BME280;11853;48.080;11.960;2023-04-06T05:57:30;95008.50;;;8.27;48.89
23363;BME280;11853;48.080;11.960;2023-04-06T05:59:55;95014.88;;;8.65;47.69
23363;BME280;11853;48.080;11.960;2023-04-06T06:02:21;95018.81;;;9.00;46.78
23363;BME280;11853;48.080;11.960;2023-04-06T06:04:47;95007.53;;;9.08;46.61
23363;BME280;11853;48.080;11.960;2023-04-06T06:07:14;95018.41;;;9.05;46.79
23363;BME280;11853;48.080;11.960;2023-04-06T06:09:40;95007.81;;;9.14;46.45
23363;BME280;11853;48.080;11.960;2023-04-06T06:12:05;95015.47;;;9.27;46.91
23363;BME280;11853;48.080;11.960;2023-04-06T06:14:31;95017.13;;;9.47;46.75
23363;BME280;11853;48.080;11.960;2023-04-06T06:16:57;95008.56;;;9.63;46.70
23363;BME280;11853;48.080;11.960;2023-04-06T06:19:22;95015.56;;;9.55;46.12
23363;BME280;11853;48.080;11.960;2023-04-06T06:21:48;95015.28;;;9.58;45.18
23363;BME280;11853;48.080;11.960;2023-04-06T06:24:13;95014.28;;;9.68;45.78
23363;BME280;11853;48.080;11.960;2023-04-06T06:26:39;95017.94;;;9.48;45.27
23363;BME280;11853;48.080;11.960;2023-04-06T06:29:05;95017.63;;;9.70;45.29
23363;BME280;11853;48.080;11.960;2023-04-06T06:31:31;95021.25;;;9.69;45.08
23363;BME280;11853;48.080;11.960;2023-04-06T06:33:57;95026.78;;;9.86;44.49
23363;BME280;11853;48.080;11.960;2023-04-06T06:36:22;95030.72;;;9.82;45.26
23363;BME280;11853;48.080;11.960;2023-04-06T06:38:48;95036.22;;;9.98;44.57
23363;BME280;11853;48.080;11.960;2023-04-06T06:41:13;95030.69;;;9.91;44.40
23363;BME280;11853;48.080;11.960;2023-04-06T06:43:39;95031.50;;;9.92;44.87
23363;BME280;11853;48.080;11.960;2023-04-06T06:46:05;95029.94;;;9.42;44.90
23363;BME280;11853;48.080;11.960;2023-04-06T06:48:31;95032.75;;;9.21;45.86
23363;BME280;11853;48.080;11.960;2023-04-06T06:50:57;95021.56;;;8.98;47.17
23363;BME280;11853;48.080;11.960;2023-04-06T06:53:24;95031.63;;;9.14;46.91
23363;BME280;11853;48.080;11.960;2023-04-06T06:55:50;95035.91;;;9.54;44.47
23363;BME280;11853;48.080;11.960;2023-04-06T06:58:18;95032.13;;;9.76;46.12
23363;BME280;11853;48.080;11.960;2023-04-06T07:00:44;95035.50;;;9.59;47.02
23363;BME280;11853;48.080;11.960;2023-04-06T07:03:10;95040.28;;;10.02;45.48
23363;BME280;11853;48.080;11.960;2023-04-06T07:05:35;95039.72;;;9.99;46.42
23363;BME280;11853;48.080;11.960;2023-04-06T07:08:01;95039.28;;;10.03;45.65
23363;BME280;11853;48.080;11.960;2023-04-06T07:10:27;95044.59;;;10.03;45.13
23363;BME280;11853;48.080;11.960;2023-04-06T07:12:53;95041.22;;;10.01;45.10
23363;BME280;11853;48.080;11.960;2023-04-06T07:15:19;95040.19;;;9.75;45.76
23363;BME280;11853;48.080;11.960;2023-04-06T07:17:45;95037.75;;;9.05;46.66
23363;BME280;11853;48.080;11.960;2023-04-06T07:20:11;95038.47;;;9.07;49.51
23363;BME280;11853;48.080;11.960;2023-04-06T07:22:38;95042.78;;;9.28;46.46
23363;BME280;11853;48.080;11.960;2023-04-06T07:25:04;95036.34;;;9.01;47.10
23363;BME280;11853;48.080;11.960;2023-04-06T07:27:30;95039.28;;;9.17;49.68
23363;BME280;11853;48.080;11.960;2023-04-06T07:29:56;95038.00;;;9.41;49.17
23363;BME280;11853;48.080;11.960;2023-04-06T07:32:21;95040.50;;;9.52;49.25
23363;BME280;11853;48.080;11.960;2023-04-06T07:34:47;95039.41;;;9.35;47.16
23363;BME280;11853;48.080;11.960;2023-04-06T07:37:13;95041.06;;;8.78;48.73
23363;BME280;11853;48.080;11.960;2023-04-06T07:39:38;95038.44;;;8.88;48.18
23363;BME280;11853;48.080;11.960;2023-04-06T07:42:05;95037.47;;;8.89;48.07
23363;BME280;11853;48.080;11.960;2023-04-06T07:44:31;95038.44;;;8.97;49.01
23363;BME280;11853;48.080;11.960;2023-04-06T07:46:56;95033.72;;;9.20;50.13
23363;BME280;11853;48.080;11.960;2023-04-06T07:49:22;95039.78;;;9.69;47.40
23363;BME280;11853;48.080;11.960;2023-04-06T07:51:48;95047.41;;;10.02;45.47
23363;BME280;11853;48.080;11.960;2023-04-06T07:54:13;95046.28;;;9.95;46.98
23363;BME280;11853;48.080;11.960;2023-04-06T07:56:39;95036.78;;;10.02;45.65
23363;BME280;11853;48.080;11.960;2023-04-06T07:59:05;95039.16;;;10.42;46.71
23363;BME280;11853;48.080;11.960;2023-04-06T08:01:30;95040.81;;;10.43;45.59
23363;BME280;11853;48.080;11.960;2023-04-06T08:03:56;95039.91;;;10.62;46.68
23363;BME280;11853;48.080;11.960;2023-04-06T08:06:25;95043.38;;;10.90;44.88
23363;BME280;11853;48.080;11.960;2023-04-06T08:08:51;95034.13;;;10.67;45.08
23363;BME280;11853;48.080;11.960;2023-04-06T08:11:19;95040.50;;;10.56;45.32
23363;BME280;11853;48.080;11.960;2023-04-06T08:13:45;95037.56;;;10.22;46.89
23363;BME280;11853;48.080;11.960;2023-04-06T08:16:11;95037.00;;;10.28;45.78
23363;BME280;11853;48.080;11.960;2023-04-06T08:18:36;95033.88;;;10.32;46.35
23363;BME280;11853;48.080;11.960;2023-04-06T08:21:02;95034.47;;;10.81;46.23
23363;BME280;11853;48.080;11.960;2023-04-06T08:23:27;95028.84;;;10.39;45.65
23363;BME280;11853;48.080;11.960;2023-04-06T08:25:53;95031.13;;;10.79;44.65
23363;BME280;11853;48.080;11.960;2023-04-06T08:28:21;95030.16;;;10.80;43.45
23363;BME280;11853;48.080;11.960;2023-04-06T08:30:47;95036.19;;;10.73;42.28
23363;BME280;11853;48.080;11.960;2023-04-06T08:33:13;95038.06;;;10.90;44.36
23363;BME280;11853;48.080;11.960;2023-04-06T08:35:39;95032.28;;;11.13;42.95
23363;BME280;11853;48.080;11.960;2023-04-06T08:38:04;95039.13;;;11.33;42.36
23363;BME280;11853;48.080;11.960;2023-04-06T08:40:38;95038.44;;;11.31;41.13
23363;BME280;11853;48.080;11.960;2023-04-06T08:43:06;95039.78;;;11.35;42.96
23363;BME280;11853;48.080;11.960;2023-04-06T08:45:34;95035.91;;;11.65;42.30
23363;BME280;11853;48.080;11.960;2023-04-06T08:48:01;95036.41;;;11.25;40.98
23363;BME280;11853;48.080;11.960;2023-04-06T08:50:29;95032.75;;;11.26;43.15
23363;BME280;11853;48.080;11.960;2023-04-06T08:52:55;95035.09;;;11.47;38.98
23363;BME280;11853;48.080;11.960;2023-04-06T08:55:21;95027.75;;;11.67;39.45
23363;BME280;11853;48.080;11.960;2023-04-06T08:57:48;95027.75;;;11.85;39.80
23363;BME280;11853;48.080;11.960;2023-04-06T09:00:14;95031.69;;;12.33;40.12
23363;BME280;11853;48.080;11.960;2023-04-06T09:02:43;95027.97;;;11.91;39.77
23363;BME280;11853;48.080;11.960;2023-04-06T09:05:10;95024.47;;;11.73;39.55
23363;BME280;11853;48.080;11.960;2023-04-06T09:07:37;95029.38;;;12.04;40.18
23363;BME280;11853;48.080;11.960;2023-04-06T09:10:06;95019.25;;;12.42;39.58
23363;BME280;11853;48.080;11.960;2023-04-06T09:12:32;95027.84;;;12.27;39.19
23363;BME280;11853;48.080;11.960;2023-04-06T09:14:59;95026.50;;;12.23;38.36
23363;BME280;11853;48.080;11.960;2023-04-06T09:17:29;95031.66;;;12.25;38.36
23363;BME280;11853;48.080;11.960;2023-04-06T09:19:58;95028.50;;;11.95;38.08
23363;BME280;11853;48.080;11.960;2023-04-06T09:22:23;95031.63;;;12.16;37.84
23363;BME280;11853;48.080;11.960;2023-04-06T09:24:53;95028.75;;;12.44;38.62
23363;BME280;11853;48.080;11.960;2023-04-06T09:27:36;95018.34;;;12.67;36.15
23363;BME280;11853;48.080;11.960;2023-04-06T09:30:12;95021.91;;;12.42;36.51
23363;BME280;11853;48.080;11.960;2023-04-06T09:32:50;95020.19;;;12.67;38.00
23363;BME280;11853;48.080;11.960;2023-04-06T09:35:16;95015.88;;;12.66;34.58
23363;BME280;11853;48.080;11.960;2023-04-06T09:37:43;95023.25;;;12.80;36.03
23363;BME280;11853;48.080;11.960;2023-04-06T09:40:09;95019.44;;;12.91;34.78
23363;BME280;11853;48.080;11.960;2023-04-06T09:42:35;95016.38;;;12.69;35.97
23363;BME280;11853;48.080;11.960;2023-04-06T09:45:02;95007.13;;;12.98;37.40
23363;BME280;11853;48.080;11.960;2023-04-06T09:47:29;95007.84;;;13.16;36.11
23363;BME280;11853;48.080;11.960;2023-04-06T09:49:59;95012.50;;;13.14;34.93
23363;BME280;11853;48.080;11.960;2023-04-06T09:52:33;95005.16;;;13.24;34.45
23363;BME280;11853;48.080;11.960;2023-04-06T09:55:04;95007.84;;;13.16;34.81
23363;BME280;11853;48.080;11.960;2023-04-06T09:57:32;95006.31;;;13.22;34.09
23363;BME280;11853;48.080;11.960;2023-04-06T10:00:03;94999.84;;;13.08;33.61
23363;BME280;11853;48.080;11.960;2023-04-06T10:02:51;95004.28;;;12.83;34.44
23363;BME280;11853;48.080;11.960;2023-04-06T10:07:47;95005.50;;;13.05;34.89
23363;BME280;11853;48.080;11.960;2023-04-06T10:10:16;94998.84;;;13.17;35.02
23363;BME280;11853;48.080;11.960;2023-04-06T10:12:43;94998.00;;;13.17;34.20
23363;BME280;11853;48.080;11.960;2023-04-06T10:15:10;94992.22;;;13.38;35.94
23363;BME280;11853;48.080;11.960;2023-04-06T10:17:36;94995.19;;;13.67;35.58
23363;BME280;11853;48.080;11.960;2023-04-06T10:20:09;94991.38;;;13.62;34.14
23363;BME280;11853;48.080;11.960;2023-04-06T10:22:51;94993.88;;;13.47;32.95
23363;BME280;11853;48.080;11.960;2023-04-06T10:25:29;94976.09;;;13.39;34.59
23363;BME280;11853;48.080;11.960;2023-04-06T10:28:05;94980.56;;;13.55;35.76
23363;BME280;11853;48.080;11.960;2023-04-06T10:30:31;94978.22;;;13.44;33.92
23363;BME280;11853;48.080;11.960;2023-04-06T10:32:57;94975.41;;;13.45;34.84
23363;BME280;11853;48.080;11.960;2023-04-06T10:35:23;94958.25;;;13.48;35.05
23363;BME280;11853;48.080;11.960;2023-04-06T10:37:50;94964.91;;;13.44;36.82
23363;BME280;11853;48.080;11.960;2023-04-06T10:40:24;94959.56;;;13.52;36.01
23363;BME280;11853;48.080;11.960;2023-04-06T10:42:54;94958.75;;;13.60;34.17
23363;BME280;11853;48.080;11.960;2023-04-06T10:45:26;94968.19;;;13.87;35.49
23363;BME280;11853;48.080;11.960;2023-04-06T10:47:55;94961.78;;;14.12;35.09
23363;BME280;11853;48.080;11.960;2023-04-06T10:50:21;94959.09;;;14.20;34.75
23363;BME280;11853;48.080;11.960;2023-04-06T10:53:09;94957.34;;;14.36;36.03
23363;BME280;11853;48.080;11.960;2023-04-06T10:55:38;94957.38;;;14.28;35.61
23363;BME280;11853;48.080;11.960;2023-04-06T10:58:08;94950.75;;;14.24;35.64
23363;BME280;11853;48.080;11.960;2023-04-06T11:00:34;94948.44;;;14.12;35.04
23363;BME280;11853;48.080;11.960;2023-04-06T11:03:00;94959.19;;;13.88;34.64
23363;BME280;11853;48.080;11.960;2023-04-06T11:05:29;94948.72;;;13.62;34.16
23363;BME280;11853;48.080;11.960;2023-04-06T11:07:55;94950.91;;;13.42;33.76
23363;BME280;11853;48.080;11.960;2023-04-06T11:10:22;94953.91;;;13.22;34.46
23363;BME280;11853;48.080;11.960;2023-04-06T11:12:53;94950.59;;;13.28;35.52
23363;BME280;11853;48.080;11.960;2023-04-06T11:15:20;94951.56;;;13.44;35.22
23363;BME280;11853;48.080;11.960;2023-04-06T11:17:45;94951.22;;;13.71;35.58
23363;BME280;11853;48.080;11.960;2023-04-06T11:20:11;94944.88;;;13.64;34.87
23363;BME280;11853;48.080;11.960;2023-04-06T11:22:48;94943.25;;;13.47;33.81
23363;BME280;11853;48.080;11.960;2023-04-06T11:25:14;94938.94;;;13.46;35.17
23363;BME280;11853;48.080;11.960;2023-04-06T11:27:42;94940.25;;;13.42;35.95
23363;BME280;11853;48.080;11.960;2023-04-06T11:30:09;94942.94;;;13.34;35.81
23363;BME280;11853;48.080;11.960;2023-04-06T11:32:42;94931.75;;;13.38;35.56
23363;BME280;11853;48.080;11.960;2023-04-06T11:35:28;94930.25;;;13.36;35.55
23363;BME280;11853;48.080;11.960;2023-04-06T11:37:56;94936.25;;;13.46;36.34
23363;BME280;11853;48.080;11.960;2023-04-06T11:40:22;94933.59;;;13.54;35.93
23363;BME280;11853;48.080;11.960;2023-04-06T11:42:52;94929.91;;;13.55;35.28
23363;BME280;11853;48.080;11.960;2023-04-06T11:45:18;94923.59;;;13.40;34.22
23363;BME280;11853;48.080;11.960;2023-04-06T11:47:44;94922.44;;;13.26;35.69
23363;BME280;11853;48.080;11.960;2023-04-06T11:50:12;94929.56;;;13.17;34.77
23363;BME280;11853;48.080;11.960;2023-04-06T11:52:41;94927.91;;;13.08;35.67
23363;BME280;11853;48.080;11.960;2023-04-06T11:55:18;94927.41;;;13.13;36.02
23363;BME280;11853;48.080;11.960;2023-04-06T11:57:44;94922.06;;;13.13;35.89
23363;BME280;11853;48.080;11.960;2023-04-06T12:00:11;94920.75;;;13.08;36.41
23363;BME280;11853;48.080;11.960;2023-04-06T12:02:38;94914.59;;;13.00;35.93
23363;BME280;11853;48.080;11.960;2023-04-06T12:05:05;94913.94;;;13.06;36.13
23363;BME280;11853;48.080;11.960;2023-04-06T12:07:32;94914.06;;;13.04;36.32
23363;BME280;11853;48.080;11.960;2023-04-06T12:09:58;94907.09;;;12.95;35.81
23363;BME280;11853;48.080;11.960;2023-04-06T12:12:24;94909.09;;;12.85;34.83
23363;BME280;11853;48.080;11.960;2023-04-06T12:14:50;94900.56;;;12.73;35.60
23363;BME280;11853;48.080;11.960;2023-04-06T12:17:16;94901.59;;;12.72;37.10
23363;BME280;11853;48.080;11.960;2023-04-06T12:19:42;94901.59;;;12.72;35.77
23363;BME280;11853;48.080;11.960;2023-04-06T12:22:07;94902.91;;;12.84;36.91
23363;BME280;11853;48.080;11.960;2023-04-06T12:24:33;94898.13;;;12.96;35.92
23363;BME280;11853;48.080;11.960;2023-04-06T12:26:58;94898.44;;;13.01;35.66
23363;BME280;11853;48.080;11.960;2023-04-06T12:29:24;94891.78;;;13.14;35.51
23363;BME280;11853;48.080;11.960;2023-04-06T12:31:50;94891.31;;;13.26;33.66
23363;BME280;11853;48.080;11.960;2023-04-06T12:34:16;94885.63;;;12.97;33.21
23363;BME280;11853;48.080;11.960;2023-04-06T12:36:42;94881.63;;;12.68;33.17
23363;BME280;11853;48.080;11.960;2023-04-06T12:39:07;94879.63;;;12.62;33.75
23363;BME280;11853;48.080;11.960;2023-04-06T12:41:33;94877.59;;;12.64;34.56
23363;BME280;11853;48.080;11.960;2023-04-06T12:43:59;94867.97;;;12.63;33.28
23363;BME280;11853;48.080;11.960;2023-04-06T12:46:25;94881.25;;;12.47;34.70
23363;BME280;11853;48.080;11.960;2023-04-06T12:48:51;94877.25;;;12.43;33.16
23363;BME280;11853;48.080;11.960;2023-04-06T12:51:21;94878.25;;;12.50;34.57
23363;BME280;11853;48.080;11.960;2023-04-06T12:53:47;94878.94;;;12.52;34.62
23363;BME280;11853;48.080;11.960;2023-04-06T12:56:15;94875.13;;;12.54;34.76